Chantal — A8WQ3 — position and weather

sailwx.info

Track history (hours):
 
Tides and Currents Weather Stations Pressure Air Temp Water Temp Dewpoint Dewpoint Depression Visibility Wind Speed Wind Dir Waves Ship Positions

Chantal

Last reported at 2017-Mar-26 00:23 UTC. Time now 2017-Mar-26 07:31 UTC.
Position N 37°29' W 123°22'.

Length 228 m; draft 12.5 m.

Type: Tanker. MMSI: 636014805.

Date/timePositionNaut miles runAvg speedWind from/ knotsBaromVisibWave heightAir tempDewpointWater temp
2017-Mar-26 00:23N 37°29' W 123°22'8 9.3
2017-Mar-25 23:29N 37°29' W 123°11'1 0.7
2017-Mar-25 22:32N 37°29' W 123°12'1 0.9
2017-Mar-25 21:33N 37°29' W 123°13'0 0.2
2017-Mar-25 20:10N 37°29' W 123°13'2 3.4
2017-Mar-25 19:29N 37°27' W 123°11'3411.1
2017-Mar-25 16:23N 36°53' W 123°11'1111.5
2017-Mar-25 15:27N 36°42' W 123°11'2110.7
2017-Mar-25 13:31N 36°24' W 122°58'1211.4
2017-Mar-25 12:29N 36°15' W 122°49'1111.4
2017-Mar-25 11:33N 36°07' W 122°40'1111.5
2017-Mar-25 10:33N 35°58' W 122°31'1110.7
2017-Mar-25 09:33N 35°48' W 122°28'7310.4
2017-Mar-25 02:30N 34°40' W 121°53'1111.3
2017-Mar-25 01:32N 34°37' W 121°40'1111.6
2017-Mar-25 00:33N 34°34' W 121°27'1211.5
2017-Mar-24 23:33N 34°31' W 121°13'1211.5
2017-Mar-24 22:33N 34°28' W 120°60'1211.9
2017-Mar-24 21:33N 34°25' W 120°46'1211.7
2017-Mar-24 20:32N 34°22' W 120°32'1111.3
2017-Mar-24 19:33N 34°19' W 120°19'1211.6
2017-Mar-24 18:33N 34°16' W 120°05'1211.8
2017-Mar-24 17:33N 34°13' W 119°52'1211.8
2017-Mar-24 16:33N 34°10' W 119°38'1212.1
2017-Mar-24 15:31N 34°06' W 119°23'1111.7
2017-Mar-24 14:33N 34°02' W 119°11'1211.9
2017-Mar-24 13:33N 33°56' W 118°58'1211.8
2017-Mar-24 12:33N 33°50' W 118°46'1211.5
2017-Mar-24 11:33N 33°45' W 118°34'1111.1
2017-Mar-24 10:33N 33°39' W 118°22'9 9.2
2017-Mar-24 09:33N 33°40' W 118°11'6 5.9
2017-Mar-24 08:29N 33°46' W 118°13'4 0.1
2017-Mar-23 01:32N 33°44' W 118°10'3 1.0
2017-Mar-22 22:04N 33°41' W 118°08'0 0.0
2017-Mar-22 21:28N 33°41' W 118°08'0 0.0
2017-Mar-22 20:10N 33°41' W 118°08'0 0.1
2017-Mar-22 19:31N 33°41' W 118°08'0 0.0
2017-Mar-22 12:28N 33°41' W 118°08'0 0.0
2017-Mar-22 08:28N 33°41' W 118°09'0 0.1
2017-Mar-22 07:28N 33°41' W 118°08'0 0.0
2017-Mar-22 06:10N 33°41' W 118°08'0 0.0
2017-Mar-22 04:22N 33°41' W 118°08'0 0.1
2017-Mar-22 03:22N 33°41' W 118°09'0 0.0
2017-Mar-22 02:28N 33°41' W 118°09'0 0.0
2017-Mar-22 01:28N 33°41' W 118°09'0 0.0
2017-Mar-22 00:28N 33°41' W 118°09'0 0.1
2017-Mar-21 23:31N 33°41' W 118°08'0 0.0
2017-Mar-21 22:25N 33°41' W 118°08'0 0.0
2017-Mar-21 21:31N 33°41' W 118°08'0 0.0
2017-Mar-21 20:31N 33°41' W 118°08'0 0.0
2017-Mar-21 19:31N 33°41' W 118°08'0 0.0
2017-Mar-21 18:31N 33°41' W 118°08'0 0.1
2017-Mar-21 17:33N 33°41' W 118°09'1 1.0
2017-Mar-21 16:33N 33°41' W 118°10'6 5.9
2017-Mar-21 15:33N 33°35' W 118°10'1110.9
2017-Mar-21 14:33N 33°25' W 118°05'1111.3
2017-Mar-21 13:33N 33°14' W 118°01'1111.0
2017-Mar-21 12:33N 33°04' W 117°56'1212.3
2017-Mar-21 11:33N 32°53' W 117°50'1312.6
2017-Mar-21 10:33N 32°42' W 117°42'1312.9
2017-Mar-21 09:33N 32°31' W 117°35'1312.6
2017-Mar-21 08:33N 32°18' W 117°32'1412.5
2017-Mar-21 07:27N 32°04' W 117°30'  
Track history (hours):
 
Tides and Currents Weather Stations Pressure Air Temp Water Temp Dewpoint Dewpoint Depression Visibility Wind Speed Wind Dir Waves Ship Positions

Chantal

Last reported at 2017-Mar-26 00:23 UTC. Time now 2017-Mar-26 07:31 UTC.
Position N 37°29' W 123°22'.

Length 228 m; draft 12.5 m.

Type: Tanker. MMSI: 636014805.

Date/timePositionNaut miles runAvg speedWind from/ knotsBaromVisibWave heightAir tempDewpointWater temp
2017-Mar-26 00:23N 37°29' W 123°22'8 9.3
2017-Mar-25 23:29N 37°29' W 123°11'1 0.7
2017-Mar-25 22:32N 37°29' W 123°12'1 0.9
2017-Mar-25 21:33N 37°29' W 123°13'0 0.2
2017-Mar-25 20:10N 37°29' W 123°13'2 3.4
2017-Mar-25 19:29N 37°27' W 123°11'3411.1
2017-Mar-25 16:23N 36°53' W 123°11'1111.5
2017-Mar-25 15:27N 36°42' W 123°11'2110.7
2017-Mar-25 13:31N 36°24' W 122°58'1211.4
2017-Mar-25 12:29N 36°15' W 122°49'1111.4
2017-Mar-25 11:33N 36°07' W 122°40'1111.5
2017-Mar-25 10:33N 35°58' W 122°31'1110.7
2017-Mar-25 09:33N 35°48' W 122°28'7310.4
2017-Mar-25 02:30N 34°40' W 121°53'1111.3
2017-Mar-25 01:32N 34°37' W 121°40'1111.6
2017-Mar-25 00:33N 34°34' W 121°27'1211.5
2017-Mar-24 23:33N 34°31' W 121°13'1211.5
2017-Mar-24 22:33N 34°28' W 120°60'1211.9
2017-Mar-24 21:33N 34°25' W 120°46'1211.7
2017-Mar-24 20:32N 34°22' W 120°32'1111.3
2017-Mar-24 19:33N 34°19' W 120°19'1211.6
2017-Mar-24 18:33N 34°16' W 120°05'1211.8
2017-Mar-24 17:33N 34°13' W 119°52'1211.8
2017-Mar-24 16:33N 34°10' W 119°38'1212.1
2017-Mar-24 15:31N 34°06' W 119°23'1111.7
2017-Mar-24 14:33N 34°02' W 119°11'1211.9
2017-Mar-24 13:33N 33°56' W 118°58'1211.8
2017-Mar-24 12:33N 33°50' W 118°46'1211.5
2017-Mar-24 11:33N 33°45' W 118°34'1111.1
2017-Mar-24 10:33N 33°39' W 118°22'9 9.2
2017-Mar-24 09:33N 33°40' W 118°11'6 5.9
2017-Mar-24 08:29N 33°46' W 118°13'4 0.1
2017-Mar-23 01:32N 33°44' W 118°10'3 1.0
2017-Mar-22 22:04N 33°41' W 118°08'0 0.0
2017-Mar-22 21:28N 33°41' W 118°08'0 0.0
2017-Mar-22 20:10N 33°41' W 118°08'0 0.1
2017-Mar-22 19:31N 33°41' W 118°08'0 0.0
2017-Mar-22 12:28N 33°41' W 118°08'0 0.0
2017-Mar-22 08:28N 33°41' W 118°09'0 0.1
2017-Mar-22 07:28N 33°41' W 118°08'0 0.0
2017-Mar-22 06:10N 33°41' W 118°08'0 0.0
2017-Mar-22 04:22N 33°41' W 118°08'0 0.1
2017-Mar-22 03:22N 33°41' W 118°09'0 0.0
2017-Mar-22 02:28N 33°41' W 118°09'0 0.0
2017-Mar-22 01:28N 33°41' W 118°09'0 0.0
2017-Mar-22 00:28N 33°41' W 118°09'0 0.1
2017-Mar-21 23:31N 33°41' W 118°08'0 0.0
2017-Mar-21 22:25N 33°41' W 118°08'0 0.0
2017-Mar-21 21:31N 33°41' W 118°08'0 0.0
2017-Mar-21 20:31N 33°41' W 118°08'0 0.0
2017-Mar-21 19:31N 33°41' W 118°08'0 0.0
2017-Mar-21 18:31N 33°41' W 118°08'0 0.1
2017-Mar-21 17:33N 33°41' W 118°09'1 1.0
2017-Mar-21 16:33N 33°41' W 118°10'6 5.9
2017-Mar-21 15:33N 33°35' W 118°10'1110.9
2017-Mar-21 14:33N 33°25' W 118°05'1111.3
2017-Mar-21 13:33N 33°14' W 118°01'1111.0
2017-Mar-21 12:33N 33°04' W 117°56'1212.3
2017-Mar-21 11:33N 32°53' W 117°50'1312.6
2017-Mar-21 10:33N 32°42' W 117°42'1312.9
2017-Mar-21 09:33N 32°31' W 117°35'1312.6
2017-Mar-21 08:33N 32°18' W 117°32'1412.5
2017-Mar-21 07:27N 32°04' W 117°30'  

Dump ship's entire track history